Time;durP1;ratioP1;P1;durP2;ratioP2;P2;SDS_P1;SDS_P2;PMS_P1;PMS_P2;Temp;Humidity;BMP_temperature;BMP_pressure;BME280_temperature;BME280_humidity;BME280_pressure;Samples;Min_cycle;Max_cycle;Signal;HPM_P1;HPM_P2
2023/10/05 00:00:57;;;;;;;2.30;2.20;;;;;;;;;;4972652;28;20434;-74
2023/10/05 00:03:23;;;;;;;2.60;2.03;;;;;;;;;;4973215;28;20461;-72
2023/10/05 00:05:49;;;;;;;6.40;2.50;;;;;;;;;;4971727;28;20445;-73
2023/10/05 00:08:15;;;;;;;8.13;3.03;;;;;;;;;;4972542;28;20856;-74
2023/10/05 00:10:41;;;;;;;3.33;2.63;;;;;;;;;;4972352;28;20451;-73
2023/10/05 00:13:07;;;;;;;2.60;2.40;;;;;;;;;;4973267;28;20501;-74
2023/10/05 00:15:36;;;;;;;5.53;3.70;;;;;;;;;;4959864;28;20522;-73
2023/10/05 00:18:03;;;;;;;22.80;6.37;;;;;;;;;;4953657;28;20454;-72
2023/10/05 00:20:38;;;;;;;12.10;5.13;;;;;;;;;;4951437;28;20455;-73
2023/10/05 00:23:08;;;;;;;18.07;5.73;;;;;;;;;;4952543;28;20441;-73
2023/10/05 00:25:34;;;;;;;20.87;6.23;;;;;;;;;;4956205;28;20458;-73
2023/10/05 00:28:05;;;;;;;20.87;6.07;;;;;;;;;;4953067;28;20446;-72
2023/10/05 00:30:31;;;;;;;21.67;7.33;;;;;;;;;;4951596;29;20447;-72
2023/10/05 00:33:00;;;;;;;13.30;5.10;;;;;;;;;;4935195;28;20495;-73
2023/10/05 00:35:33;;;;;;;18.47;6.43;;;;;;;;;;4952629;28;20537;-73
2023/10/05 00:40:42;;;;;;;17.83;6.00;;;;;;;;;;4952860;28;20429;-72
2023/10/05 00:43:19;;;;;;;19.07;4.60;;;;;;;;;;4953132;28;20430;-72
2023/10/05 00:45:47;;;;;;;9.13;4.90;;;;;;;;;;4952150;28;20458;-73
2023/10/05 00:48:34;;;;;;;14.73;6.97;;;;;;;;;;4935681;28;20453;-73
2023/10/05 00:51:05;;;;;;;18.40;5.90;;;;;;;;;;4952485;28;20497;-73
2023/10/05 00:53:32;;;;;;;17.97;4.90;;;;;;;;;;4952004;28;20835;-71
2023/10/05 00:56:08;;;;;;;10.13;2.60;;;;;;;;;;4952477;28;20442;-74
2023/10/05 00:58:39;;;;;;;2.87;2.47;;;;;;;;;;4953284;28;20449;-73
2023/10/05 01:01:08;;;;;;;3.87;3.20;;;;;;;;;;4951623;28;20418;-73
2023/10/05 01:03:46;;;;;;;5.50;2.73;;;;;;;;;;4951736;28;20501;-70
2023/10/05 01:06:25;;;;;;;8.70;3.63;;;;;;;;;;4951677;28;20431;-73
2023/10/05 01:08:55;;;;;;;20.83;4.10;;;;;;;;;;4951722;28;20542;-73
2023/10/05 01:11:26;;;;;;;4.90;3.10;;;;;;;;;;4951819;28;20455;-73
2023/10/05 01:13:58;;;;;;;5.23;2.57;;;;;;;;;;4951127;28;20446;-74
2023/10/05 01:16:24;;;;;;;6.13;2.90;;;;;;;;;;4951707;28;20455;-74
2023/10/05 01:18:52;;;;;;;4.73;2.70;;;;;;;;;;4952309;28;20457;-72
2023/10/05 01:21:18;;;;;;;7.03;3.20;;;;;;;;;;4951946;28;20954;-73
2023/10/05 01:23:48;;;;;;;4.27;2.67;;;;;;;;;;4952026;28;20789;-74
2023/10/05 01:26:14;;;;;;;5.83;2.90;;;;;;;;;;4951275;28;20435;-73
2023/10/05 01:28:41;;;;;;;4.50;3.30;;;;;;;;;;4950873;28;20438;-73
2023/10/05 01:31:12;;;;;;;6.00;2.40;;;;;;;;;;4950427;28;20450;-74
2023/10/05 01:33:38;;;;;;;4.47;3.00;;;;;;;;;;4951925;28;20461;-73
2023/10/05 01:36:04;;;;;;;2.80;2.20;;;;;;;;;;4951322;28;20435;-72
2023/10/05 01:38:39;;;;;;;4.00;2.70;;;;;;;;;;4952826;28;20496;-70
2023/10/05 01:41:06;;;;;;;3.70;2.60;;;;;;;;;;4952067;28;20468;-73
2023/10/05 01:43:34;;;;;;;2.40;2.20;;;;;;;;;;4951855;28;20443;-71
2023/10/05 01:46:00;;;;;;;2.60;2.40;;;;;;;;;;4950257;28;20443;-74
2023/10/05 01:48:28;;;;;;;5.60;3.57;;;;;;;;;;4950794;28;20517;-72
2023/10/05 01:50:57;;;;;;;2.27;2.13;;;;;;;;;;4950237;29;20466;-73
2023/10/05 01:53:23;;;;;;;2.63;2.40;;;;;;;;;;4950289;28;20518;-71
2023/10/05 01:55:50;;;;;;;2.20;2.10;;;;;;;;;;4951902;28;20485;-74
2023/10/05 01:58:28;;;;;;;5.53;2.40;;;;;;;;;;4950685;28;20531;-72
2023/10/05 02:00:54;;;;;;;3.10;1.87;;;;;;;;;;4949940;28;20455;-73
2023/10/05 02:03:23;;;;;;;1.87;1.80;;;;;;;;;;4951285;28;20474;-73
2023/10/05 02:05:58;;;;;;;3.97;2.60;;;;;;;;;;4950819;29;20474;-73
2023/10/05 02:08:24;;;;;;;2.70;1.80;;;;;;;;;;4951161;28;20513;-69
2023/10/05 02:10:50;;;;;;;5.50;1.37;;;;;;;;;;4951324;29;20481;-72
2023/10/05 02:13:17;;;;;;;2.70;2.13;;;;;;;;;;4950433;28;20490;-71
2023/10/05 02:15:47;;;;;;;1.90;1.90;;;;;;;;;;4951275;28;21279;-72
2023/10/05 02:18:31;;;;;;;1.53;1.53;;;;;;;;;;4951604;28;20466;-72
2023/10/05 02:21:08;;;;;;;2.43;1.80;;;;;;;;;;4952272;28;20448;-73
2023/10/05 02:23:39;;;;;;;2.13;1.73;;;;;;;;;;4950077;28;20442;-73
2023/10/05 02:26:23;;;;;;;2.27;2.07;;;;;;;;;;4950373;28;20450;-70
2023/10/05 02:28:49;;;;;;;4.30;1.37;;;;;;;;;;4932799;29;20537;-68
2023/10/05 02:31:15;;;;;;;1.80;1.70;;;;;;;;;;4951550;28;20801;-73
2023/10/05 02:33:43;;;;;;;2.13;2.03;;;;;;;;;;4951314;28;20478;-74
2023/10/05 02:36:26;;;;;;;1.93;1.83;;;;;;;;;;4951293;28;20458;-74
2023/10/05 02:38:56;;;;;;;3.03;2.10;;;;;;;;;;4951328;28;20481;-73
2023/10/05 02:41:37;;;;;;;2.00;1.90;;;;;;;;;;4951304;28;20454;-73
2023/10/05 02:44:03;;;;;;;2.83;1.60;;;;;;;;;;4950614;28;20795;-70
2023/10/05 02:46:29;;;;;;;2.53;1.80;;;;;;;;;;4950192;28;20562;-73
2023/10/05 02:48:56;;;;;;;3.70;2.00;;;;;;;;;;4951457;28;20966;-74
2023/10/05 02:51:22;;;;;;;2.93;2.10;;;;;;;;;;4951447;28;20489;-73
2023/10/05 02:53:55;;;;;;;2.50;1.70;;;;;;;;;;4950266;28;20521;-72
2023/10/05 02:56:29;;;;;;;4.97;2.50;;;;;;;;;;4951754;28;20438;-73
2023/10/05 02:59:00;;;;;;;2.00;1.90;;;;;;;;;;4932981;28;20800;-74
2023/10/05 03:01:27;;;;;;;1.80;1.80;;;;;;;;;;4950376;28;20466;-74
2023/10/05 03:03:55;;;;;;;1.67;1.57;;;;;;;;;;4950021;28;21057;-74
2023/10/05 03:06:22;;;;;;;2.70;1.60;;;;;;;;;;4951172;29;21042;-74
2023/10/05 03:08:49;;;;;;;2.20;2.10;;;;;;;;;;4951402;28;20501;-73
2023/10/05 03:11:18;;;;;;;2.00;2.00;;;;;;;;;;4954282;29;20525;-74
2023/10/05 03:13:44;;;;;;;2.40;2.30;;;;;;;;;;4937048;29;20931;-73
2023/10/05 03:16:10;;;;;;;2.07;1.97;;;;;;;;;;4953328;28;20466;-73
2023/10/05 03:18:43;;;;;;;1.70;1.70;;;;;;;;;;4953710;28;20445;-74
2023/10/05 03:21:17;;;;;;;2.33;1.60;;;;;;;;;;4954026;29;20445;-74
2023/10/05 03:23:43;;;;;;;11.00;2.90;;;;;;;;;;4953123;28;21214;-74
2023/10/05 03:26:10;;;;;;;2.23;2.23;;;;;;;;;;4954031;29;20427;-74
2023/10/05 03:28:36;;;;;;;1.77;1.67;;;;;;;;;;4954855;28;20431;-74
2023/10/05 03:31:07;;;;;;;1.17;1.17;;;;;;;;;;4953624;29;20450;-70
2023/10/05 03:33:34;;;;;;;1.60;1.50;;;;;;;;;;4953233;29;20465;-73
2023/10/05 03:36:06;;;;;;;2.13;1.87;;;;;;;;;;4953273;29;21029;-73
2023/10/05 03:38:39;;;;;;;1.97;1.87;;;;;;;;;;4953655;28;20501;-73
2023/10/05 03:41:08;;;;;;;2.00;1.90;;;;;;;;;;4953815;28;20957;-74
2023/10/05 03:43:34;;;;;;;2.20;2.10;;;;;;;;;;4954485;28;20521;-74
2023/10/05 03:46:06;;;;;;;3.10;2.80;;;;;;;;;;4936301;29;20485;-73
2023/10/05 03:48:38;;;;;;;3.67;3.37;;;;;;;;;;4953673;28;20494;-71
2023/10/05 03:51:07;;;;;;;4.43;3.20;;;;;;;;;;4952919;28;20486;-73
2023/10/05 03:53:33;;;;;;;4.30;3.73;;;;;;;;;;4952618;28;20482;-73
2023/10/05 03:55:59;;;;;;;11.40;4.20;;;;;;;;;;4953300;29;21010;-73
2023/10/05 03:58:25;;;;;;;4.10;3.77;;;;;;;;;;4953562;29;20434;-73
2023/10/05 04:00:51;;;;;;;5.93;3.10;;;;;;;;;;4952850;29;20443;-74
2023/10/05 04:03:19;;;;;;;1.60;1.50;;;;;;;;;;4952740;29;20545;-74
2023/10/05 04:05:46;;;;;;;5.73;3.97;;;;;;;;;;4952462;28;21105;-73
2023/10/05 04:08:12;;;;;;;2.03;2.03;;;;;;;;;;4953715;29;20435;-74
2023/10/05 04:10:52;;;;;;;2.77;2.50;;;;;;;;;;4952527;29;20451;-74
2023/10/05 04:13:20;;;;;;;8.70;2.80;;;;;;;;;;4952473;28;20949;-74
2023/10/05 04:15:46;;;;;;;3.77;2.93;;;;;;;;;;4951737;28;20505;-69
2023/10/05 04:18:15;;;;;;;3.20;2.90;;;;;;;;;;4953475;29;20435;-72
2023/10/05 04:20:43;;;;;;;2.53;2.43;;;;;;;;;;4952183;28;20426;-72
2023/10/05 04:23:10;;;;;;;1.73;1.73;;;;;;;;;;4952100;29;20939;-72
2023/10/05 04:25:36;;;;;;;2.43;2.33;;;;;;;;;;4952364;29;20451;-73
2023/10/05 04:28:03;;;;;;;2.40;2.40;;;;;;;;;;4952199;29;20990;-73
2023/10/05 04:30:29;;;;;;;3.70;1.77;;;;;;;;;;4951549;28;20860;-75
2023/10/05 04:32:54;;;;;;;3.33;2.27;;;;;;;;;;4952904;29;21006;-74
2023/10/05 04:35:27;;;;;;;2.00;1.90;;;;;;;;;;4952267;29;20447;-74
2023/10/05 04:37:54;;;;;;;3.17;2.60;;;;;;;;;;4935519;29;20475;-71
2023/10/05 04:40:23;;;;;;;2.13;2.03;;;;;;;;;;4952062;29;20450;-73
2023/10/05 04:42:52;;;;;;;2.27;2.27;;;;;;;;;;4948758;28;20467;-73
2023/10/05 04:45:23;;;;;;;1.90;1.70;;;;;;;;;;4951443;28;20450;-74
2023/10/05 04:47:49;;;;;;;2.30;2.10;;;;;;;;;;4952066;29;20446;-73
2023/10/05 04:50:17;;;;;;;4.33;3.10;;;;;;;;;;4950912;29;20537;-74
2023/10/05 04:52:45;;;;;;;3.20;2.90;;;;;;;;;;4951280;29;20482;-73
2023/10/05 04:55:18;;;;;;;5.40;3.43;;;;;;;;;;4952746;28;20473;-73
2023/10/05 04:57:50;;;;;;;5.80;3.97;;;;;;;;;;4954281;28;20546;-71
2023/10/05 05:03:32;;;;;;;14.33;4.37;;;;;;;;;;4951061;28;20462;-69
2023/10/05 05:05:57;;;;;;;4.00;3.60;;;;;;;;;;4951828;29;20446;-70
2023/10/05 05:08:23;;;;;;;3.27;3.00;;;;;;;;;;4951661;28;20450;-69
2023/10/05 05:10:49;;;;;;;3.07;2.30;;;;;;;;;;4950406;28;20447;-73
2023/10/05 05:13:15;;;;;;;2.60;2.40;;;;;;;;;;4950939;28;20490;-70
2023/10/05 05:15:42;;;;;;;2.23;2.10;;;;;;;;;;4951460;28;20478;-74
2023/10/05 05:18:14;;;;;;;5.47;2.40;;;;;;;;;;4950600;28;20446;-75
2023/10/05 05:20:41;;;;;;;2.67;2.57;;;;;;;;;;4951085;29;20446;-74
2023/10/05 05:23:07;;;;;;;2.10;2.00;;;;;;;;;;4951171;29;20501;-72
2023/10/05 05:25:33;;;;;;;2.13;2.03;;;;;;;;;;4949288;28;20446;-70
2023/10/05 05:28:05;;;;;;;4.20;2.77;;;;;;;;;;4950982;29;21317;-74
2023/10/05 05:30:31;;;;;;;14.30;2.33;;;;;;;;;;4932797;29;20454;-71
2023/10/05 05:32:57;;;;;;;7.23;3.50;;;;;;;;;;4950342;28;20997;-74
2023/10/05 05:35:23;;;;;;;2.20;2.10;;;;;;;;;;4951611;28;21124;-74
2023/10/05 05:37:49;;;;;;;2.00;1.93;;;;;;;;;;4950478;28;20447;-74
2023/10/05 05:40:15;;;;;;;2.43;2.23;;;;;;;;;;4951909;28;20480;-70
2023/10/05 05:42:44;;;;;;;4.70;2.10;;;;;;;;;;4950619;28;20481;-74
2023/10/05 05:45:17;;;;;;;4.20;3.03;;;;;;;;;;4949959;28;20451;-73
2023/10/05 05:47:47;;;;;;;3.00;2.70;;;;;;;;;;4949873;28;20443;-74
2023/10/05 05:50:23;;;;;;;2.30;2.20;;;;;;;;;;4933008;28;20505;-70
2023/10/05 05:52:53;;;;;;;8.40;2.70;;;;;;;;;;4950812;28;20488;-71
2023/10/05 05:55:22;;;;;;;3.67;2.40;;;;;;;;;;4950431;29;20466;-74
2023/10/05 05:57:52;;;;;;;4.43;3.70;;;;;;;;;;4950995;28;20442;-72
2023/10/05 06:00:18;;;;;;;6.07;3.30;;;;;;;;;;4948417;29;20946;-72
2023/10/05 06:02:46;;;;;;;4.47;2.80;;;;;;;;;;4947898;28;20538;-71
2023/10/05 06:05:13;;;;;;;2.80;2.70;;;;;;;;;;4949662;28;20445;-73
2023/10/05 06:07:39;;;;;;;2.37;2.27;;;;;;;;;;4949796;28;20489;-72
2023/10/05 06:10:15;;;;;;;9.43;6.50;;;;;;;;;;4948591;28;20502;-73
2023/10/05 06:12:51;;;;;;;4.30;3.20;;;;;;;;;;4949882;29;20493;-72
2023/10/05 06:15:17;;;;;;;3.00;2.80;;;;;;;;;;4949388;28;21016;-74
2023/10/05 06:17:43;;;;;;;2.83;2.73;;;;;;;;;;4949541;28;20435;-73
2023/10/05 06:20:14;;;;;;;2.50;2.37;;;;;;;;;;4949652;28;20504;-73
2023/10/05 06:22:44;;;;;;;3.30;3.10;;;;;;;;;;4950731;28;21788;-71
2023/10/05 06:25:11;;;;;;;4.53;3.10;;;;;;;;;;4951073;28;20443;-72
2023/10/05 06:27:37;;;;;;;7.23;3.47;;;;;;;;;;4951122;29;20985;-70
2023/10/05 06:30:07;;;;;;;7.53;2.70;;;;;;;;;;4950469;28;21365;-69
2023/10/05 06:32:33;;;;;;;3.83;3.30;;;;;;;;;;4949969;29;20867;-72
2023/10/05 06:34:59;;;;;;;3.50;3.17;;;;;;;;;;4950366;28;20434;-71
2023/10/05 06:37:25;;;;;;;3.43;2.43;;;;;;;;;;4950786;28;20446;-73
2023/10/05 06:39:53;;;;;;;9.30;3.17;;;;;;;;;;4950494;29;20419;-73
2023/10/05 06:42:34;;;;;;;2.97;2.77;;;;;;;;;;4950817;28;20450;-70
2023/10/05 06:45:00;;;;;;;19.63;3.80;;;;;;;;;;4954713;29;20429;-70
2023/10/05 06:47:48;;;;;;;2.90;2.40;;;;;;;;;;4954667;29;20419;-69
2023/10/05 06:50:12;;;;;;;7.40;4.33;;;;;;;;;;4953182;28;20922;-70
2023/10/05 06:52:39;;;;;;;20.77;9.10;;;;;;;;;;4953633;28;21806;-72
2023/10/05 06:55:08;;;;;;;18.13;10.73;;;;;;;;;;4954571;29;20510;-72
2023/10/05 06:57:37;;;;;;;19.40;9.27;;;;;;;;;;4953304;28;20451;-71
2023/10/05 07:00:11;;;;;;;16.17;6.87;;;;;;;;;;4953665;28;20434;-71
2023/10/05 07:02:41;;;;;;;5.20;4.17;;;;;;;;;;4953194;29;20453;-72
2023/10/05 07:05:08;;;;;;;3.53;3.23;;;;;;;;;;4954478;28;20450;-73
2023/10/05 07:07:35;;;;;;;4.47;2.77;;;;;;;;;;4954203;28;20493;-73
2023/10/05 07:10:03;;;;;;;3.33;2.60;;;;;;;;;;4937129;28;20522;-69
2023/10/05 07:12:29;;;;;;;9.03;3.30;;;;;;;;;;4936163;29;20531;-73
2023/10/05 07:14:56;;;;;;;6.50;3.97;;;;;;;;;;4952085;28;20998;-72
2023/10/05 07:17:22;;;;;;;8.90;3.70;;;;;;;;;;4953564;28;20453;-73
2023/10/05 07:19:49;;;;;;;3.13;3.03;;;;;;;;;;4954081;28;20427;-71
2023/10/05 07:22:16;;;;;;;3.73;3.40;;;;;;;;;;4954176;29;20462;-67
2023/10/05 07:24:42;;;;;;;6.63;3.63;;;;;;;;;;4953606;28;20434;-72
2023/10/05 07:27:08;;;;;;;3.80;3.30;;;;;;;;;;4953177;28;20441;-70
2023/10/05 07:29:34;;;;;;;11.63;4.60;;;;;;;;;;4954539;28;20431;-70
2023/10/05 07:32:01;;;;;;;12.87;3.50;;;;;;;;;;4954286;28;20482;-71
2023/10/05 07:34:27;;;;;;;4.17;2.37;;;;;;;;;;4954469;28;20447;-68
2023/10/05 07:36:54;;;;;;;7.53;4.00;;;;;;;;;;4953798;28;20450;-70
2023/10/05 07:39:23;;;;;;;2.93;2.80;;;;;;;;;;4953643;29;20423;-72
2023/10/05 07:41:49;;;;;;;4.33;4.03;;;;;;;;;;4953887;28;20534;-68
2023/10/05 07:44:16;;;;;;;4.50;4.17;;;;;;;;;;4949757;28;20501;-69
2023/10/05 07:46:43;;;;;;;11.50;4.00;;;;;;;;;;4954201;28;20931;-68
2023/10/05 07:49:09;;;;;;;5.17;4.73;;;;;;;;;;4953222;29;20516;-73
2023/10/05 07:51:35;;;;;;;4.87;4.43;;;;;;;;;;4952438;29;20430;-74
2023/10/05 07:54:01;;;;;;;4.00;3.60;;;;;;;;;;4951959;28;20447;-71
2023/10/05 07:56:28;;;;;;;4.30;3.40;;;;;;;;;;4951865;28;20961;-73
2023/10/05 07:58:54;;;;;;;7.83;6.13;;;;;;;;;;4950970;28;20447;-73
2023/10/05 08:01:21;;;;;;;6.03;4.10;;;;;;;;;;4951399;29;20452;-73
2023/10/05 08:03:47;;;;;;;6.10;4.17;;;;;;;;;;4934985;29;20446;-73
2023/10/05 08:06:15;;;;;;;6.80;3.40;;;;;;;;;;4953032;28;20438;-81
2023/10/05 08:08:41;;;;;;;4.30;4.00;;;;;;;;;;4952771;29;20477;-73
2023/10/05 08:11:08;;;;;;;4.70;4.20;;;;;;;;;;4952680;28;20580;-72
2023/10/05 08:13:34;;;;;;;4.60;4.17;;;;;;;;;;4951179;29;20482;-69
2023/10/05 08:16:00;;;;;;;4.80;4.10;;;;;;;;;;4952953;28;20483;-72
2023/10/05 08:18:26;;;;;;;5.30;4.70;;;;;;;;;;4952704;29;20816;-71
2023/10/05 08:20:53;;;;;;;6.30;5.00;;;;;;;;;;4952960;28;20418;-72
2023/10/05 08:23:19;;;;;;;6.60;4.50;;;;;;;;;;4954209;28;21314;-73
2023/10/05 08:25:46;;;;;;;7.60;5.13;;;;;;;;;;4953024;28;20438;-73
2023/10/05 08:28:12;;;;;;;5.83;4.73;;;;;;;;;;4952906;29;20419;-72
2023/10/05 08:30:49;;;;;;;6.07;4.50;;;;;;;;;;4951633;29;20442;-72
2023/10/05 08:33:19;;;;;;;4.07;3.73;;;;;;;;;;4952456;29;20492;-74
2023/10/05 08:35:45;;;;;;;6.00;4.50;;;;;;;;;;4953280;29;21719;-74
2023/10/05 08:38:15;;;;;;;7.10;5.53;;;;;;;;;;4953608;28;20451;-72
2023/10/05 08:40:42;;;;;;;7.33;5.30;;;;;;;;;;4952543;28;20447;-73
2023/10/05 08:43:09;;;;;;;6.17;4.77;;;;;;;;;;4952469;29;20803;-72
2023/10/05 08:45:51;;;;;;;7.50;5.67;;;;;;;;;;4952462;29;20438;-73
2023/10/05 08:48:51;;;;;;;5.20;4.73;;;;;;;;;;4953453;28;20469;-67
2023/10/05 08:51:11;;;;;;;5.27;4.83;;;;;;;;;;4947101;28;20485;-73
2023/10/05 08:53:41;;;;;;;5.40;4.97;;;;;;;;;;4947857;28;20483;-73
2023/10/05 08:56:12;;;;;;;5.50;5.07;;;;;;;;;;4951954;29;20482;-68
2023/10/05 08:58:41;;;;;;;4.63;4.23;;;;;;;;;;4933925;29;20815;-72
2023/10/05 09:01:29;;;;;;;7.00;4.00;;;;;;;;;;4951375;28;20431;-71
2023/10/05 09:06:45;;;;;;;8.80;4.17;;;;;;;;;;4947122;28;20458;-70
2023/10/05 09:09:14;;;;;;;4.40;4.00;;;;;;;;;;4947009;28;20454;-71
2023/10/05 09:11:40;;;;;;;7.30;5.20;;;;;;;;;;4944394;28;20447;-68
2023/10/05 09:14:13;;;;;;;7.97;4.70;;;;;;;;;;4950333;28;20867;-68
2023/10/05 09:16:43;;;;;;;11.70;4.70;;;;;;;;;;4952456;28;20455;-73
2023/10/05 09:19:13;;;;;;;12.63;5.50;;;;;;;;;;4950416;28;20436;-70
2023/10/05 09:24:29;;;;;;;6.37;5.00;;;;;;;;;;4951265;28;20500;-67
2023/10/05 09:26:55;;;;;;;4.50;4.10;;;;;;;;;;4953181;28;20435;-69
2023/10/05 09:29:32;;;;;;;4.93;4.60;;;;;;;;;;4951216;29;20419;-68
2023/10/05 09:31:59;;;;;;;7.13;4.10;;;;;;;;;;4951274;28;21044;-72
2023/10/05 09:34:34;;;;;;;15.23;5.73;;;;;;;;;;4950506;28;20589;-69
2023/10/05 09:37:07;;;;;;;5.20;4.80;;;;;;;;;;4952014;28;21293;-71
2023/10/05 09:39:44;;;;;;;9.60;5.27;;;;;;;;;;4951179;28;20430;-70
2023/10/05 09:42:17;;;;;;;6.47;4.33;;;;;;;;;;4951640;28;20415;-73
2023/10/05 09:44:51;;;;;;;11.50;5.07;;;;;;;;;;4949350;29;20446;-69
2023/10/05 09:47:18;;;;;;;9.90;5.20;;;;;;;;;;4950743;28;20434;-64
2023/10/05 09:49:45;;;;;;;10.30;6.20;;;;;;;;;;4949613;29;20430;-71
2023/10/05 09:52:12;;;;;;;5.47;4.97;;;;;;;;;;4950786;29;20474;-69
2023/10/05 09:54:40;;;;;;;5.67;5.13;;;;;;;;;;4951255;28;20434;-71
2023/10/05 09:57:10;;;;;;;5.50;5.07;;;;;;;;;;4951701;28;20466;-71
2023/10/05 09:59:41;;;;;;;5.10;4.30;;;;;;;;;;4934018;29;20426;-72
2023/10/05 10:02:12;;;;;;;5.20;4.80;;;;;;;;;;4951079;28;20435;-71
2023/10/05 10:04:39;;;;;;;4.23;3.73;;;;;;;;;;4952669;28;20438;-69
2023/10/05 10:07:15;;;;;;;4.20;3.10;;;;;;;;;;4951420;28;20438;-73
2023/10/05 10:09:42;;;;;;;10.13;4.73;;;;;;;;;;4950895;28;20430;-70
2023/10/05 10:12:11;;;;;;;10.53;3.10;;;;;;;;;;4951287;28;20490;-74
2023/10/05 10:14:41;;;;;;;3.17;2.30;;;;;;;;;;4951080;28;20958;-71
2023/10/05 10:17:24;;;;;;;2.83;2.73;;;;;;;;;;4948462;28;21156;-68
2023/10/05 10:19:55;;;;;;;2.70;2.50;;;;;;;;;;4955824;28;20446;-68
2023/10/05 10:22:28;;;;;;;5.83;2.70;;;;;;;;;;4957111;28;20496;-74
2023/10/05 10:24:56;;;;;;;6.57;3.20;;;;;;;;;;4957089;28;20830;-74
2023/10/05 10:27:28;;;;;;;7.37;2.80;;;;;;;;;;4956788;28;20582;-71
2023/10/05 10:29:56;;;;;;;3.47;3.00;;;;;;;;;;4955714;28;20797;-72
2023/10/05 10:32:24;;;;;;;11.40;2.90;;;;;;;;;;4959039;28;20509;-70
2023/10/05 10:34:52;;;;;;;5.50;2.70;;;;;;;;;;4957169;28;20594;-70
2023/10/05 10:37:38;;;;;;;4.07;2.63;;;;;;;;;;4957274;28;20446;-70
2023/10/05 10:40:12;;;;;;;3.37;3.07;;;;;;;;;;4954576;28;20470;-69
2023/10/05 10:42:53;;;;;;;7.07;3.20;;;;;;;;;;4956768;28;20449;-70
2023/10/05 10:45:29;;;;;;;5.53;3.10;;;;;;;;;;4956932;28;20465;-74
2023/10/05 10:47:56;;;;;;;4.33;2.90;;;;;;;;;;4957023;28;20458;-70
2023/10/05 10:50:40;;;;;;;2.63;2.43;;;;;;;;;;4956720;28;20481;-69
2023/10/05 10:53:12;;;;;;;2.50;2.30;;;;;;;;;;4956524;28;20488;-69
2023/10/05 10:55:41;;;;;;;3.93;2.87;;;;;;;;;;4940833;28;20426;-70
2023/10/05 10:58:13;;;;;;;2.67;2.53;;;;;;;;;;4955983;28;20469;-68
2023/10/05 11:03:12;;;;;;;3.00;2.80;;;;;;;;;;4956108;29;20465;-69
2023/10/05 11:05:43;;;;;;;4.40;2.20;;;;;;;;;;4941285;28;20430;-70
2023/10/05 11:08:12;;;;;;;18.53;2.70;;;;;;;;;;4955788;28;20458;-71
2023/10/05 11:10:42;;;;;;;6.63;1.70;;;;;;;;;;4954150;29;20456;-69
2023/10/05 11:13:15;;;;;;;2.07;1.80;;;;;;;;;;4954620;28;20494;-70
2023/10/05 11:15:49;;;;;;;1.93;1.70;;;;;;;;;;4955891;28;20470;-69
2023/10/05 11:18:18;;;;;;;2.40;2.23;;;;;;;;;;4952093;29;20959;-68
2023/10/05 11:20:51;;;;;;;2.13;1.93;;;;;;;;;;4954996;29;20450;-68
2023/10/05 11:23:23;;;;;;;2.53;1.70;;;;;;;;;;4957621;28;20423;-69
2023/10/05 11:25:51;;;;;;;2.03;1.30;;;;;;;;;;4955745;29;20442;-69
2023/10/05 11:28:24;;;;;;;2.50;2.30;;;;;;;;;;4956053;28;20447;-70
2023/10/05 11:30:49;;;;;;;2.03;1.83;;;;;;;;;;4953487;28;20439;-69
2023/10/05 11:33:16;;;;;;;2.40;1.40;;;;;;;;;;4954316;28;20541;-70
2023/10/05 11:35:48;;;;;;;1.47;1.37;;;;;;;;;;4952608;28;20443;-68
2023/10/05 11:38:16;;;;;;;3.70;1.90;;;;;;;;;;4952137;28;20438;-64
2023/10/05 11:40:49;;;;;;;8.10;2.20;;;;;;;;;;4953535;28;20452;-69
2023/10/05 11:43:16;;;;;;;2.93;1.50;;;;;;;;;;4948065;28;20506;-69
2023/10/05 11:46:16;;;;;;;1.57;1.10;;;;;;;;;;4952121;28;20478;-69
2023/10/05 11:48:48;;;;;;;1.73;1.27;;;;;;;;;;4953520;28;20446;-70
2023/10/05 11:51:16;;;;;;;4.93;1.90;;;;;;;;;;4952887;28;20844;-70
2023/10/05 11:53:43;;;;;;;3.00;1.60;;;;;;;;;;4952293;29;20545;-69
2023/10/05 11:56:10;;;;;;;1.13;1.13;;;;;;;;;;4952306;28;20446;-70
2023/10/05 11:58:37;;;;;;;2.67;2.00;;;;;;;;;;4951131;29;20505;-69
2023/10/05 12:01:03;;;;;;;1.40;1.07;;;;;;;;;;4952577;29;20987;-74
2023/10/05 12:03:30;;;;;;;2.20;1.40;;;;;;;;;;4951464;29;20811;-70
2023/10/05 12:06:00;;;;;;;2.20;2.10;;;;;;;;;;4953155;29;20456;-68
2023/10/05 12:08:28;;;;;;;6.30;1.93;;;;;;;;;;4951626;29;20449;-69
2023/10/05 12:10:59;;;;;;;1.97;1.87;;;;;;;;;;4950883;28;20509;-69
2023/10/05 12:13:25;;;;;;;1.70;1.27;;;;;;;;;;4951837;29;20497;-70
2023/10/05 12:15:51;;;;;;;4.27;1.80;;;;;;;;;;4953393;28;20573;-68
2023/10/05 12:18:17;;;;;;;2.30;1.27;;;;;;;;;;4953205;28;20450;-72
2023/10/05 12:20:43;;;;;;;1.30;1.30;;;;;;;;;;4952682;28;20442;-75
2023/10/05 12:23:14;;;;;;;1.90;1.60;;;;;;;;;;4953608;28;20887;-71
2023/10/05 12:25:47;;;;;;;2.27;1.17;;;;;;;;;;4934370;28;20458;-68
2023/10/05 12:28:13;;;;;;;1.47;1.23;;;;;;;;;;4951916;28;20462;-69
2023/10/05 12:30:44;;;;;;;7.70;1.30;;;;;;;;;;4950979;28;20443;-70
2023/10/05 12:33:10;;;;;;;2.93;1.47;;;;;;;;;;4952889;28;20929;-67
2023/10/05 12:35:37;;;;;;;2.30;1.90;;;;;;;;;;4952442;28;20435;-69
2023/10/05 12:38:10;;;;;;;3.13;2.60;;;;;;;;;;4952400;28;20455;-68
2023/10/05 12:40:47;;;;;;;1.83;1.73;;;;;;;;;;4953144;28;20459;-68
2023/10/05 12:43:16;;;;;;;3.03;2.03;;;;;;;;;;4934171;29;20473;-67
2023/10/05 12:45:46;;;;;;;4.57;1.70;;;;;;;;;;4952564;28;20482;-68
2023/10/05 12:48:13;;;;;;;3.07;2.00;;;;;;;;;;4953918;28;20464;-68
2023/10/05 12:50:42;;;;;;;5.73;2.47;;;;;;;;;;4952726;28;20423;-68
2023/10/05 12:53:08;;;;;;;1.27;1.27;;;;;;;;;;4949960;29;20998;-69
2023/10/05 12:55:35;;;;;;;2.73;2.10;;;;;;;;;;4952420;29;20435;-68
2023/10/05 12:58:02;;;;;;;2.67;1.70;;;;;;;;;;4952633;29;21266;-68
2023/10/05 13:00:29;;;;;;;1.80;1.70;;;;;;;;;;4952284;29;20427;-68
2023/10/05 13:03:01;;;;;;;3.07;1.60;;;;;;;;;;4951997;28;20989;-68
2023/10/05 13:05:43;;;;;;;4.53;2.10;;;;;;;;;;4950896;28;20505;-70
2023/10/05 13:08:10;;;;;;;1.63;1.30;;;;;;;;;;4952398;29;20454;-69
2023/10/05 13:10:37;;;;;;;19.07;2.13;;;;;;;;;;4932149;29;20446;-68
2023/10/05 13:13:09;;;;;;;7.90;5.50;;;;;;;;;;4948096;28;20494;-68
2023/10/05 13:15:36;;;;;;;2.93;1.67;;;;;;;;;;4949951;28;20853;-68
2023/10/05 13:18:17;;;;;;;2.23;2.00;;;;;;;;;;4951118;28;20902;-69
2023/10/05 13:20:44;;;;;;;1.90;1.77;;;;;;;;;;4950689;29;20926;-68
2023/10/05 13:23:11;;;;;;;2.73;2.00;;;;;;;;;;4950262;29;20427;-68
2023/10/05 13:25:45;;;;;;;3.03;2.23;;;;;;;;;;4951043;29;20491;-68
2023/10/05 13:28:11;;;;;;;4.63;2.67;;;;;;;;;;4951193;28;20454;-68
2023/10/05 13:30:46;;;;;;;3.83;2.13;;;;;;;;;;4950436;29;20944;-69
2023/10/05 13:33:34;;;;;;;4.07;2.20;;;;;;;;;;4949853;28;20500;-68
2023/10/05 13:36:04;;;;;;;3.13;2.33;;;;;;;;;;4950403;29;20919;-68
2023/10/05 13:38:33;;;;;;;12.03;2.57;;;;;;;;;;4934142;29;20517;-68
2023/10/05 13:43:33;;;;;;;2.20;2.10;;;;;;;;;;4949960;28;20924;-68
2023/10/05 13:46:22;;;;;;;2.20;2.10;;;;;;;;;;4950685;28;20814;-68
2023/10/05 13:48:48;;;;;;;3.40;3.07;;;;;;;;;;4936808;28;20529;-68
2023/10/05 13:51:19;;;;;;;2.40;2.20;;;;;;;;;;4936054;28;21050;-68
2023/10/05 13:53:55;;;;;;;2.90;2.67;;;;;;;;;;4948594;28;20494;-68
2023/10/05 13:56:27;;;;;;;2.87;2.57;;;;;;;;;;4950293;28;20442;-68
2023/10/05 13:58:57;;;;;;;6.00;2.23;;;;;;;;;;4949535;29;20515;-68
2023/10/05 14:01:23;;;;;;;2.30;2.10;;;;;;;;;;4951042;28;20438;-69
2023/10/05 14:03:54;;;;;;;2.23;1.73;;;;;;;;;;4949848;28;20442;-68
2023/10/05 14:06:27;;;;;;;2.03;1.93;;;;;;;;;;4933220;29;20431;-68
2023/10/05 14:08:57;;;;;;;2.30;1.60;;;;;;;;;;4949815;29;20419;-68
2023/10/05 14:11:23;;;;;;;2.20;2.10;;;;;;;;;;4949331;28;20447;-68
2023/10/05 14:13:49;;;;;;;2.40;2.30;;;;;;;;;;4949779;28;20980;-68
2023/10/05 14:16:15;;;;;;;7.33;3.03;;;;;;;;;;4949658;28;20466;-68
2023/10/05 14:18:41;;;;;;;4.57;2.40;;;;;;;;;;4932472;29;20460;-67
2023/10/05 14:21:09;;;;;;;5.77;2.73;;;;;;;;;;4949934;29;20849;-69
2023/10/05 14:23:35;;;;;;;3.83;3.17;;;;;;;;;;4950307;28;20506;-67
2023/10/05 14:26:03;;;;;;;2.70;2.30;;;;;;;;;;4950168;28;21236;-69
2023/10/05 14:28:29;;;;;;;3.33;3.13;;;;;;;;;;4949603;29;20767;-69
2023/10/05 14:30:57;;;;;;;5.70;2.80;;;;;;;;;;4950811;28;20948;-68
2023/10/05 14:33:23;;;;;;;4.67;3.13;;;;;;;;;;4949365;28;20486;-69
2023/10/05 14:35:57;;;;;;;4.10;2.60;;;;;;;;;;4947722;28;20955;-69
2023/10/05 14:38:25;;;;;;;2.50;2.30;;;;;;;;;;4948886;28;20427;-69
2023/10/05 14:40:56;;;;;;;5.30;2.93;;;;;;;;;;4949236;28;20434;-68
2023/10/05 14:43:30;;;;;;;6.83;3.10;;;;;;;;;;4948912;28;20431;-68
2023/10/05 14:45:58;;;;;;;2.10;1.97;;;;;;;;;;4949232;28;20434;-69
2023/10/05 14:48:29;;;;;;;4.73;2.50;;;;;;;;;;4949715;28;20480;-69
2023/10/05 14:50:55;;;;;;;4.87;2.87;;;;;;;;;;4949900;28;20446;-67
2023/10/05 14:53:24;;;;;;;4.93;2.50;;;;;;;;;;4931616;29;20536;-67
2023/10/05 14:55:50;;;;;;;10.93;2.87;;;;;;;;;;4950073;28;20438;-68
2023/10/05 14:58:16;;;;;;;5.03;3.50;;;;;;;;;;4948904;29;20435;-68
2023/10/05 15:00:43;;;;;;;5.03;2.90;;;;;;;;;;4949288;29;20422;-68
2023/10/05 15:03:08;;;;;;;6.03;2.67;;;;;;;;;;4949701;29;20919;-68
2023/10/05 15:05:37;;;;;;;4.30;2.80;;;;;;;;;;4936087;29;20426;-68
2023/10/05 15:08:03;;;;;;;6.93;2.67;;;;;;;;;;4953422;29;20431;-68
2023/10/05 15:10:33;;;;;;;5.13;4.03;;;;;;;;;;4952749;29;20480;-68